sensor_id;sensor_type;location;lat;lon;timestamp;temperature;humidity
19803;DHT22;66074;50.764;6.090;2024-02-28T00:02:09;6.50;99.90
19803;DHT22;66074;50.764;6.090;2024-02-28T00:04:35;6.50;99.90
19803;DHT22;66074;50.764;6.090;2024-02-28T00:07:01;6.50;99.90
19803;DHT22;66074;50.764;6.090;2024-02-28T00:09:27;6.50;99.90
19803;DHT22;66074;50.764;6.090;2024-02-28T00:11:52;6.50;99.90
19803;DHT22;66074;50.764;6.090;2024-02-28T00:14:18;6.50;99.90
19803;DHT22;66074;50.764;6.090;2024-02-28T00:16:44;6.50;99.90
19803;DHT22;66074;50.764;6.090;2024-02-28T00:19:11;6.40;99.90
19803;DHT22;66074;50.764;6.090;2024-02-28T00:21:38;6.50;99.90
19803;DHT22;66074;50.764;6.090;2024-02-28T00:24:03;6.50;99.90
19803;DHT22;66074;50.764;6.090;2024-02-28T00:26:29;6.40;99.90
19803;DHT22;66074;50.764;6.090;2024-02-28T00:28:55;6.50;99.90
19803;DHT22;66074;50.764;6.090;2024-02-28T00:31:20;6.50;99.90
19803;DHT22;66074;50.764;6.090;2024-02-28T00:33:47;6.40;99.90
19803;DHT22;66074;50.764;6.090;2024-02-28T00:36:13;6.40;99.90
19803;DHT22;66074;50.764;6.090;2024-02-28T00:38:38;6.40;99.90
19803;DHT22;66074;50.764;6.090;2024-02-28T00:41:04;6.30;99.90
19803;DHT22;66074;50.764;6.090;2024-02-28T00:43:29;6.30;99.90
19803;DHT22;66074;50.764;6.090;2024-02-28T00:45:55;6.20;99.90
19803;DHT22;66074;50.764;6.090;2024-02-28T00:48:22;6.20;99.90
19803;DHT22;66074;50.764;6.090;2024-02-28T00:50:47;6.20;99.90
19803;DHT22;66074;50.764;6.090;2024-02-28T00:53:13;6.20;99.90
19803;DHT22;66074;50.764;6.090;2024-02-28T00:55:38;6.30;99.90
19803;DHT22;66074;50.764;6.090;2024-02-28T00:58:04;6.20;99.90
19803;DHT22;66074;50.764;6.090;2024-02-28T01:00:30;6.20;99.90
19803;DHT22;66074;50.764;6.090;2024-02-28T01:02:55;6.20;99.90
19803;DHT22;66074;50.764;6.090;2024-02-28T01:05:21;6.20;99.90
19803;DHT22;66074;50.764;6.090;2024-02-28T01:07:46;6.20;99.90
19803;DHT22;66074;50.764;6.090;2024-02-28T01:10:12;6.20;99.90
19803;DHT22;66074;50.764;6.090;2024-02-28T01:12:38;6.20;99.90
19803;DHT22;66074;50.764;6.090;2024-02-28T01:15:04;6.20;99.90
19803;DHT22;66074;50.764;6.090;2024-02-28T01:17:29;6.20;99.90
19803;DHT22;66074;50.764;6.090;2024-02-28T01:19:55;6.20;99.90
19803;DHT22;66074;50.764;6.090;2024-02-28T01:22:21;6.10;99.90
19803;DHT22;66074;50.764;6.090;2024-02-28T01:24:46;6.10;99.90
19803;DHT22;66074;50.764;6.090;2024-02-28T01:27:12;6.10;99.90
19803;DHT22;66074;50.764;6.090;2024-02-28T01:29:38;6.10;99.90
19803;DHT22;66074;50.764;6.090;2024-02-28T01:32:03;6.10;99.90
19803;DHT22;66074;50.764;6.090;2024-02-28T01:34:29;6.10;99.90
19803;DHT22;66074;50.764;6.090;2024-02-28T01:36:54;6.10;99.90
19803;DHT22;66074;50.764;6.090;2024-02-28T01:39:20;6.10;99.90
19803;DHT22;66074;50.764;6.090;2024-02-28T01:41:54;6.00;99.90
19803;DHT22;66074;50.764;6.090;2024-02-28T01:44:21;6.00;99.90
19803;DHT22;66074;50.764;6.090;2024-02-28T01:46:47;6.00;99.90
19803;DHT22;66074;50.764;6.090;2024-02-28T01:49:13;6.00;99.90
19803;DHT22;66074;50.764;6.090;2024-02-28T01:51:40;6.00;99.90
19803;DHT22;66074;50.764;6.090;2024-02-28T01:54:06;6.00;99.90
19803;DHT22;66074;50.764;6.090;2024-02-28T01:56:32;6.00;99.90
19803;DHT22;66074;50.764;6.090;2024-02-28T01:58:58;6.00;99.90
19803;DHT22;66074;50.764;6.090;2024-02-28T02:01:26;6.00;99.90
19803;DHT22;66074;50.764;6.090;2024-02-28T02:03:52;6.00;99.90
19803;DHT22;66074;50.764;6.090;2024-02-28T02:06:17;6.00;99.90
19803;DHT22;66074;50.764;6.090;2024-02-28T02:08:43;6.00;99.90
19803;DHT22;66074;50.764;6.090;2024-02-28T02:11:09;5.90;99.90
19803;DHT22;66074;50.764;6.090;2024-02-28T02:13:35;5.90;99.90
19803;DHT22;66074;50.764;6.090;2024-02-28T02:16:01;5.90;99.90
19803;DHT22;66074;50.764;6.090;2024-02-28T02:18:26;5.90;99.90
19803;DHT22;66074;50.764;6.090;2024-02-28T02:21:01;5.80;99.90
19803;DHT22;66074;50.764;6.090;2024-02-28T02:23:27;5.80;99.90
19803;DHT22;66074;50.764;6.090;2024-02-28T02:25:53;5.80;99.90
19803;DHT22;66074;50.764;6.090;2024-02-28T02:28:19;5.80;99.90
19803;DHT22;66074;50.764;6.090;2024-02-28T02:30:44;5.80;99.90
19803;DHT22;66074;50.764;6.090;2024-02-28T02:33:12;5.80;99.90
19803;DHT22;66074;50.764;6.090;2024-02-28T02:35:38;5.80;99.90
19803;DHT22;66074;50.764;6.090;2024-02-28T02:38:03;5.80;99.90
19803;DHT22;66074;50.764;6.090;2024-02-28T02:40:29;5.80;99.90
19803;DHT22;66074;50.764;6.090;2024-02-28T02:42:54;5.80;99.90
19803;DHT22;66074;50.764;6.090;2024-02-28T02:45:20;5.80;99.90
19803;DHT22;66074;50.764;6.090;2024-02-28T02:47:45;5.80;99.90
19803;DHT22;66074;50.764;6.090;2024-02-28T02:50:12;5.90;99.90
19803;DHT22;66074;50.764;6.090;2024-02-28T02:52:37;5.80;99.90
19803;DHT22;66074;50.764;6.090;2024-02-28T02:55:03;5.70;99.90
19803;DHT22;66074;50.764;6.090;2024-02-28T02:57:29;5.70;99.90
19803;DHT22;66074;50.764;6.090;2024-02-28T02:59:59;5.70;99.90
19803;DHT22;66074;50.764;6.090;2024-02-28T03:02:25;5.70;99.90
19803;DHT22;66074;50.764;6.090;2024-02-28T03:04:50;5.70;99.90
19803;DHT22;66074;50.764;6.090;2024-02-28T03:07:16;5.60;99.90
19803;DHT22;66074;50.764;6.090;2024-02-28T03:09:41;5.60;99.90
19803;DHT22;66074;50.764;6.090;2024-02-28T03:12:07;5.50;99.90
19803;DHT22;66074;50.764;6.090;2024-02-28T03:14:35;5.40;99.90
19803;DHT22;66074;50.764;6.090;2024-02-28T03:17:00;5.30;99.90
19803;DHT22;66074;50.764;6.090;2024-02-28T03:19:27;5.30;99.90
19803;DHT22;66074;50.764;6.090;2024-02-28T03:21:53;5.40;99.90
19803;DHT22;66074;50.764;6.090;2024-02-28T03:24:18;5.50;99.90
19803;DHT22;66074;50.764;6.090;2024-02-28T03:26:44;5.60;99.90
19803;DHT22;66074;50.764;6.090;2024-02-28T03:29:10;5.60;99.90
19803;DHT22;66074;50.764;6.090;2024-02-28T03:31:35;5.70;99.90
19803;DHT22;66074;50.764;6.090;2024-02-28T03:34:01;5.80;99.90
19803;DHT22;66074;50.764;6.090;2024-02-28T03:36:28;5.80;99.90
19803;DHT22;66074;50.764;6.090;2024-02-28T03:38:54;5.80;99.90
19803;DHT22;66074;50.764;6.090;2024-02-28T03:41:19;5.90;99.90
19803;DHT22;66074;50.764;6.090;2024-02-28T03:43:45;5.90;99.90
19803;DHT22;66074;50.764;6.090;2024-02-28T03:46:10;6.00;99.90
19803;DHT22;66074;50.764;6.090;2024-02-28T03:48:36;6.00;99.90
19803;DHT22;66074;50.764;6.090;2024-02-28T03:51:01;6.00;99.90
19803;DHT22;66074;50.764;6.090;2024-02-28T03:53:27;6.10;99.90
19803;DHT22;66074;50.764;6.090;2024-02-28T03:55:53;6.10;99.90
19803;DHT22;66074;50.764;6.090;2024-02-28T03:58:18;6.20;99.90
19803;DHT22;66074;50.764;6.090;2024-02-28T04:00:44;6.10;99.90
19803;DHT22;66074;50.764;6.090;2024-02-28T04:03:10;6.10;99.90
19803;DHT22;66074;50.764;6.090;2024-02-28T04:05:35;6.10;99.90
19803;DHT22;66074;50.764;6.090;2024-02-28T04:08:01;6.10;99.90
19803;DHT22;66074;50.764;6.090;2024-02-28T04:10:26;6.10;99.90
19803;DHT22;66074;50.764;6.090;2024-02-28T04:12:52;6.20;99.90
19803;DHT22;66074;50.764;6.090;2024-02-28T04:15:18;6.20;99.90
19803;DHT22;66074;50.764;6.090;2024-02-28T04:17:43;6.20;99.90
19803;DHT22;66074;50.764;6.090;2024-02-28T04:20:13;6.20;99.90
19803;DHT22;66074;50.764;6.090;2024-02-28T04:22:39;6.30;99.90
19803;DHT22;66074;50.764;6.090;2024-02-28T04:25:06;6.30;99.90
19803;DHT22;66074;50.764;6.090;2024-02-28T04:27:33;6.20;99.90
19803;DHT22;66074;50.764;6.090;2024-02-28T04:29:58;6.20;99.90
19803;DHT22;66074;50.764;6.090;2024-02-28T04:32:24;6.30;99.90
19803;DHT22;66074;50.764;6.090;2024-02-28T04:34:50;6.30;99.90
19803;DHT22;66074;50.764;6.090;2024-02-28T04:37:15;6.30;99.90
19803;DHT22;66074;50.764;6.090;2024-02-28T04:39:41;6.30;99.90
19803;DHT22;66074;50.764;6.090;2024-02-28T04:42:06;6.30;99.90
19803;DHT22;66074;50.764;6.090;2024-02-28T04:44:33;6.30;99.90
19803;DHT22;66074;50.764;6.090;2024-02-28T04:46:58;6.30;99.90
19803;DHT22;66074;50.764;6.090;2024-02-28T04:49:24;6.40;99.90
19803;DHT22;66074;50.764;6.090;2024-02-28T04:51:49;6.30;99.90
19803;DHT22;66074;50.764;6.090;2024-02-28T04:54:15;6.40;99.90
19803;DHT22;66074;50.764;6.090;2024-02-28T04:56:41;6.40;99.90
19803;DHT22;66074;50.764;6.090;2024-02-28T04:59:16;6.40;99.90
19803;DHT22;66074;50.764;6.090;2024-02-28T05:01:42;6.30;99.90
19803;DHT22;66074;50.764;6.090;2024-02-28T05:04:09;6.30;99.90
19803;DHT22;66074;50.764;6.090;2024-02-28T05:06:35;6.30;99.90
19803;DHT22;66074;50.764;6.090;2024-02-28T05:09:01;6.30;99.90
19803;DHT22;66074;50.764;6.090;2024-02-28T05:11:27;6.40;99.90
19803;DHT22;66074;50.764;6.090;2024-02-28T05:13:52;6.40;99.90
19803;DHT22;66074;50.764;6.090;2024-02-28T05:16:18;6.50;99.90
19803;DHT22;66074;50.764;6.090;2024-02-28T05:18:46;6.50;99.90
19803;DHT22;66074;50.764;6.090;2024-02-28T05:21:13;6.40;99.90
19803;DHT22;66074;50.764;6.090;2024-02-28T05:23:40;6.40;99.90
19803;DHT22;66074;50.764;6.090;2024-02-28T05:26:06;6.40;99.90
19803;DHT22;66074;50.764;6.090;2024-02-28T05:28:35;6.40;99.90
19803;DHT22;66074;50.764;6.090;2024-02-28T05:31:20;6.30;99.90
19803;DHT22;66074;50.764;6.090;2024-02-28T05:33:46;6.40;99.90
19803;DHT22;66074;50.764;6.090;2024-02-28T05:36:12;6.30;99.90
19803;DHT22;66074;50.764;6.090;2024-02-28T05:38:37;6.40;99.90
19803;DHT22;66074;50.764;6.090;2024-02-28T05:41:03;6.30;99.90
19803;DHT22;66074;50.764;6.090;2024-02-28T05:43:28;6.40;99.90
19803;DHT22;66074;50.764;6.090;2024-02-28T05:45:54;6.40;99.90
19803;DHT22;66074;50.764;6.090;2024-02-28T05:48:19;6.40;99.90
19803;DHT22;66074;50.764;6.090;2024-02-28T05:50:45;6.40;99.90
19803;DHT22;66074;50.764;6.090;2024-02-28T05:53:11;6.40;99.90
19803;DHT22;66074;50.764;6.090;2024-02-28T05:55:37;6.40;99.90
19803;DHT22;66074;50.764;6.090;2024-02-28T05:58:02;6.40;99.90
19803;DHT22;66074;50.764;6.090;2024-02-28T06:00:28;6.40;99.90
19803;DHT22;66074;50.764;6.090;2024-02-28T06:02:54;6.40;99.90
19803;DHT22;66074;50.764;6.090;2024-02-28T06:05:20;6.40;99.90
19803;DHT22;66074;50.764;6.090;2024-02-28T06:07:45;6.50;99.90
19803;DHT22;66074;50.764;6.090;2024-02-28T06:10:11;6.50;99.90
19803;DHT22;66074;50.764;6.090;2024-02-28T06:12:37;6.50;99.90
19803;DHT22;66074;50.764;6.090;2024-02-28T06:15:03;6.50;99.90
19803;DHT22;66074;50.764;6.090;2024-02-28T06:17:29;6.50;99.90
19803;DHT22;66074;50.764;6.090;2024-02-28T06:19:55;6.50;99.90
19803;DHT22;66074;50.764;6.090;2024-02-28T06:22:20;6.50;99.90
19803;DHT22;66074;50.764;6.090;2024-02-28T06:24:46;6.50;99.90
19803;DHT22;66074;50.764;6.090;2024-02-28T06:27:12;6.50;99.90
19803;DHT22;66074;50.764;6.090;2024-02-28T06:29:38;6.50;99.90
19803;DHT22;66074;50.764;6.090;2024-02-28T06:32:04;6.50;99.90
19803;DHT22;66074;50.764;6.090;2024-02-28T06:34:29;6.50;99.90
19803;DHT22;66074;50.764;6.090;2024-02-28T06:36:55;6.70;99.90
19803;DHT22;66074;50.764;6.090;2024-02-28T06:39:20;6.50;99.90
19803;DHT22;66074;50.764;6.090;2024-02-28T06:41:48;6.60;99.90
19803;DHT22;66074;50.764;6.090;2024-02-28T06:44:20;6.60;99.90
19803;DHT22;66074;50.764;6.090;2024-02-28T06:46:46;6.60;99.90
19803;DHT22;66074;50.764;6.090;2024-02-28T06:49:11;6.50;99.90
19803;DHT22;66074;50.764;6.090;2024-02-28T06:51:37;6.60;99.90
19803;DHT22;66074;50.764;6.090;2024-02-28T06:54:03;6.60;99.90
19803;DHT22;66074;50.764;6.090;2024-02-28T06:56:30;6.60;99.90
19803;DHT22;66074;50.764;6.090;2024-02-28T06:58:55;6.60;99.90
19803;DHT22;66074;50.764;6.090;2024-02-28T07:01:21;6.60;99.90
19803;DHT22;66074;50.764;6.090;2024-02-28T07:03:47;6.50;99.90
19803;DHT22;66074;50.764;6.090;2024-02-28T07:06:12;6.50;99.90
19803;DHT22;66074;50.764;6.090;2024-02-28T07:08:38;6.60;99.90
19803;DHT22;66074;50.764;6.090;2024-02-28T07:11:03;6.60;99.90
19803;DHT22;66074;50.764;6.090;2024-02-28T07:13:29;6.60;99.90
19803;DHT22;66074;50.764;6.090;2024-02-28T07:15:55;6.50;99.90
19803;DHT22;66074;50.764;6.090;2024-02-28T07:18:23;6.50;99.90
19803;DHT22;66074;50.764;6.090;2024-02-28T07:20:51;6.50;99.90
19803;DHT22;66074;50.764;6.090;2024-02-28T07:23:17;6.40;99.90
19803;DHT22;66074;50.764;6.090;2024-02-28T07:25:43;6.40;99.90
19803;DHT22;66074;50.764;6.090;2024-02-28T07:28:08;6.40;99.90
19803;DHT22;66074;50.764;6.090;2024-02-28T07:30:34;6.40;99.90
19803;DHT22;66074;50.764;6.090;2024-02-28T07:33:01;6.40;99.90
19803;DHT22;66074;50.764;6.090;2024-02-28T07:35:26;6.40;99.90
19803;DHT22;66074;50.764;6.090;2024-02-28T07:37:52;6.40;99.90
19803;DHT22;66074;50.764;6.090;2024-02-28T07:40:18;6.40;99.90
19803;DHT22;66074;50.764;6.090;2024-02-28T07:42:44;6.50;99.90
19803;DHT22;66074;50.764;6.090;2024-02-28T07:45:09;6.40;99.90
19803;DHT22;66074;50.764;6.090;2024-02-28T07:47:35;6.50;99.90
19803;DHT22;66074;50.764;6.090;2024-02-28T07:50:01;6.60;99.90
19803;DHT22;66074;50.764;6.090;2024-02-28T07:52:26;6.70;99.90
19803;DHT22;66074;50.764;6.090;2024-02-28T07:54:52;6.70;99.90
19803;DHT22;66074;50.764;6.090;2024-02-28T07:57:17;6.70;99.90
19803;DHT22;66074;50.764;6.090;2024-02-28T07:59:43;6.70;99.80
19803;DHT22;66074;50.764;6.090;2024-02-28T08:02:09;6.70;99.80
19803;DHT22;66074;50.764;6.090;2024-02-28T08:04:37;6.60;99.50
19803;DHT22;66074;50.764;6.090;2024-02-28T08:07:02;6.60;99.70
19803;DHT22;66074;50.764;6.090;2024-02-28T08:09:29;6.50;99.80
19803;DHT22;66074;50.764;6.090;2024-02-28T08:11:54;6.50;99.90
19803;DHT22;66074;50.764;6.090;2024-02-28T08:14:20;6.50;99.90
19803;DHT22;66074;50.764;6.090;2024-02-28T08:16:46;6.50;99.90
19803;DHT22;66074;50.764;6.090;2024-02-28T08:19:12;6.60;99.90
19803;DHT22;66074;50.764;6.090;2024-02-28T08:21:37;6.60;99.90
19803;DHT22;66074;50.764;6.090;2024-02-28T08:24:03;6.50;99.90
19803;DHT22;66074;50.764;6.090;2024-02-28T08:26:31;6.50;99.90
19803;DHT22;66074;50.764;6.090;2024-02-28T08:28:56;6.50;99.90
19803;DHT22;66074;50.764;6.090;2024-02-28T08:31:22;6.70;99.90
19803;DHT22;66074;50.764;6.090;2024-02-28T08:33:48;6.70;99.90
19803;DHT22;66074;50.764;6.090;2024-02-28T08:36:14;6.60;99.90
19803;DHT22;66074;50.764;6.090;2024-02-28T08:38:40;6.60;99.90
19803;DHT22;66074;50.764;6.090;2024-02-28T08:41:07;6.60;99.90
19803;DHT22;66074;50.764;6.090;2024-02-28T08:43:37;6.70;99.90
19803;DHT22;66074;50.764;6.090;2024-02-28T08:46:03;6.70;99.90
19803;DHT22;66074;50.764;6.090;2024-02-28T08:48:29;6.70;99.90
19803;DHT22;66074;50.764;6.090;2024-02-28T08:50:54;6.70;99.90
19803;DHT22;66074;50.764;6.090;2024-02-28T08:53:20;6.80;99.90
19803;DHT22;66074;50.764;6.090;2024-02-28T08:55:46;6.80;99.90
19803;DHT22;66074;50.764;6.090;2024-02-28T08:58:12;6.80;99.90
19803;DHT22;66074;50.764;6.090;2024-02-28T09:00:37;6.90;99.90
19803;DHT22;66074;50.764;6.090;2024-02-28T09:03:04;6.90;99.90
19803;DHT22;66074;50.764;6.090;2024-02-28T09:05:30;6.90;99.90
19803;DHT22;66074;50.764;6.090;2024-02-28T09:07:55;7.00;99.90
19803;DHT22;66074;50.764;6.090;2024-02-28T09:10:23;7.00;99.90
19803;DHT22;66074;50.764;6.090;2024-02-28T09:12:51;7.10;99.90
19803;DHT22;66074;50.764;6.090;2024-02-28T09:15:17;7.10;99.90
19803;DHT22;66074;50.764;6.090;2024-02-28T09:17:43;7.10;99.90
19803;DHT22;66074;50.764;6.090;2024-02-28T09:20:10;7.10;99.90
19803;DHT22;66074;50.764;6.090;2024-02-28T09:22:36;7.10;99.80
19803;DHT22;66074;50.764;6.090;2024-02-28T09:25:01;7.20;99.80
19803;DHT22;66074;50.764;6.090;2024-02-28T09:27:30;7.10;99.80
19803;DHT22;66074;50.764;6.090;2024-02-28T09:29:55;7.20;99.90
19803;DHT22;66074;50.764;6.090;2024-02-28T09:32:21;7.20;99.70
19803;DHT22;66074;50.764;6.090;2024-02-28T09:34:47;7.20;99.80
19803;DHT22;66074;50.764;6.090;2024-02-28T09:37:14;7.20;99.90
19803;DHT22;66074;50.764;6.090;2024-02-28T09:39:40;7.30;99.90
19803;DHT22;66074;50.764;6.090;2024-02-28T09:42:06;7.30;99.90
19803;DHT22;66074;50.764;6.090;2024-02-28T09:44:34;7.40;99.90
19803;DHT22;66074;50.764;6.090;2024-02-28T09:47:00;7.40;99.90
19803;DHT22;66074;50.764;6.090;2024-02-28T09:49:26;7.40;99.70
19803;DHT22;66074;50.764;6.090;2024-02-28T09:51:53;7.50;99.80
19803;DHT22;66074;50.764;6.090;2024-02-28T09:54:19;7.50;99.80
19803;DHT22;66074;50.764;6.090;2024-02-28T09:56:47;7.50;99.80
19803;DHT22;66074;50.764;6.090;2024-02-28T09:59:15;7.50;99.70
19803;DHT22;66074;50.764;6.090;2024-02-28T10:01:47;7.50;99.80
19803;DHT22;66074;50.764;6.090;2024-02-28T10:04:15;7.60;99.90
19803;DHT22;66074;50.764;6.090;2024-02-28T10:06:41;7.70;99.90
19803;DHT22;66074;50.764;6.090;2024-02-28T10:09:06;7.70;99.90
19803;DHT22;66074;50.764;6.090;2024-02-28T10:11:33;7.80;99.90
19803;DHT22;66074;50.764;6.090;2024-02-28T10:14:01;7.80;99.90
19803;DHT22;66074;50.764;6.090;2024-02-28T10:16:27;7.90;99.90
19803;DHT22;66074;50.764;6.090;2024-02-28T10:18:53;8.00;99.90
19803;DHT22;66074;50.764;6.090;2024-02-28T10:21:19;8.10;99.90
19803;DHT22;66074;50.764;6.090;2024-02-28T10:23:45;8.10;99.60
19803;DHT22;66074;50.764;6.090;2024-02-28T10:26:11;8.20;99.70
19803;DHT22;66074;50.764;6.090;2024-02-28T10:28:38;8.20;99.80
19803;DHT22;66074;50.764;6.090;2024-02-28T10:31:05;8.20;99.40
19803;DHT22;66074;50.764;6.090;2024-02-28T10:33:32;8.30;99.60
19803;DHT22;66074;50.764;6.090;2024-02-28T10:35:59;8.40;99.70
19803;DHT22;66074;50.764;6.090;2024-02-28T10:38:26;8.40;99.80
19803;DHT22;66074;50.764;6.090;2024-02-28T10:40:53;8.40;99.30
19803;DHT22;66074;50.764;6.090;2024-02-28T10:43:19;8.40;99.20
19803;DHT22;66074;50.764;6.090;2024-02-28T10:45:45;8.40;99.30
19803;DHT22;66074;50.764;6.090;2024-02-28T10:48:14;8.40;98.80
19803;DHT22;66074;50.764;6.090;2024-02-28T10:50:40;8.50;98.90
19803;DHT22;66074;50.764;6.090;2024-02-28T10:53:14;8.40;99.10
19803;DHT22;66074;50.764;6.090;2024-02-28T10:55:41;8.50;98.90
19803;DHT22;66074;50.764;6.090;2024-02-28T10:58:08;8.60;98.10
19803;DHT22;66074;50.764;6.090;2024-02-28T11:00:41;8.50;98.70
19803;DHT22;66074;50.764;6.090;2024-02-28T11:03:08;8.50;98.80
19803;DHT22;66074;50.764;6.090;2024-02-28T11:05:41;8.50;98.80
19803;DHT22;66074;50.764;6.090;2024-02-28T11:08:19;8.60;98.80
19803;DHT22;66074;50.764;6.090;2024-02-28T11:10:45;8.60;98.50
19803;DHT22;66074;50.764;6.090;2024-02-28T11:13:22;8.60;98.50
19803;DHT22;66074;50.764;6.090;2024-02-28T11:15:48;8.70;98.90
19803;DHT22;66074;50.764;6.090;2024-02-28T11:18:13;8.80;98.70
19803;DHT22;66074;50.764;6.090;2024-02-28T11:20:39;8.80;98.20
19803;DHT22;66074;50.764;6.090;2024-02-28T11:23:08;8.90;98.10
19803;DHT22;66074;50.764;6.090;2024-02-28T11:25:35;8.90;97.90
19803;DHT22;66074;50.764;6.090;2024-02-28T11:28:00;8.90;97.40
19803;DHT22;66074;50.764;6.090;2024-02-28T11:30:26;9.00;97.90
19803;DHT22;66074;50.764;6.090;2024-02-28T11:32:52;9.00;96.80
19803;DHT22;66074;50.764;6.090;2024-02-28T11:35:27;9.10;97.60
19803;DHT22;66074;50.764;6.090;2024-02-28T11:37:56;9.20;97.90
19803;DHT22;66074;50.764;6.090;2024-02-28T11:40:25;9.20;97.10
19803;DHT22;66074;50.764;6.090;2024-02-28T11:42:52;9.30;97.20
19803;DHT22;66074;50.764;6.090;2024-02-28T11:45:18;9.30;97.70
19803;DHT22;66074;50.764;6.090;2024-02-28T11:47:44;9.40;96.80
19803;DHT22;66074;50.764;6.090;2024-02-28T11:50:10;9.40;96.60
19803;DHT22;66074;50.764;6.090;2024-02-28T11:52:36;9.50;96.50
19803;DHT22;66074;50.764;6.090;2024-02-28T11:55:01;9.50;96.00
19803;DHT22;66074;50.764;6.090;2024-02-28T11:57:27;9.50;95.10
19803;DHT22;66074;50.764;6.090;2024-02-28T11:59:55;9.60;94.80
19803;DHT22;66074;50.764;6.090;2024-02-28T12:02:23;9.70;95.40
19803;DHT22;66074;50.764;6.090;2024-02-28T12:04:52;9.70;95.20
19803;DHT22;66074;50.764;6.090;2024-02-28T12:07:19;9.70;94.10
19803;DHT22;66074;50.764;6.090;2024-02-28T12:09:46;9.80;95.00
19803;DHT22;66074;50.764;6.090;2024-02-28T12:12:13;9.80;95.20
19803;DHT22;66074;50.764;6.090;2024-02-28T12:14:39;9.80;94.80
19803;DHT22;66074;50.764;6.090;2024-02-28T12:17:05;9.90;94.50
19803;DHT22;66074;50.764;6.090;2024-02-28T12:19:31;9.90;95.60
19803;DHT22;66074;50.764;6.090;2024-02-28T12:21:56;9.90;94.50
19803;DHT22;66074;50.764;6.090;2024-02-28T12:24:24;9.90;94.50
19803;DHT22;66074;50.764;6.090;2024-02-28T12:26:49;10.00;93.90
19803;DHT22;66074;50.764;6.090;2024-02-28T12:29:15;10.00;93.90
19803;DHT22;66074;50.764;6.090;2024-02-28T12:31:40;10.10;94.10
19803;DHT22;66074;50.764;6.090;2024-02-28T12:34:06;10.10;93.90
19803;DHT22;66074;50.764;6.090;2024-02-28T12:36:31;10.20;93.50
19803;DHT22;66074;50.764;6.090;2024-02-28T12:38:59;10.20;93.90
19803;DHT22;66074;50.764;6.090;2024-02-28T12:41:26;10.30;93.50
19803;DHT22;66074;50.764;6.090;2024-02-28T12:43:51;10.40;93.70
19803;DHT22;66074;50.764;6.090;2024-02-28T12:46:17;10.50;93.20
19803;DHT22;66074;50.764;6.090;2024-02-28T12:48:43;10.60;92.70
19803;DHT22;66074;50.764;6.090;2024-02-28T12:51:11;10.60;92.90
19803;DHT22;66074;50.764;6.090;2024-02-28T12:53:45;10.70;92.70
19803;DHT22;66074;50.764;6.090;2024-02-28T12:56:11;10.80;92.00
19803;DHT22;66074;50.764;6.090;2024-02-28T12:58:37;10.90;89.80
19803;DHT22;66074;50.764;6.090;2024-02-28T13:01:03;11.10;92.30
19803;DHT22;66074;50.764;6.090;2024-02-28T13:03:30;11.20;92.50
19803;DHT22;66074;50.764;6.090;2024-02-28T13:05:55;11.30;91.80
19803;DHT22;66074;50.764;6.090;2024-02-28T13:08:21;11.40;91.50
19803;DHT22;66074;50.764;6.090;2024-02-28T13:10:47;11.40;91.50
19803;DHT22;66074;50.764;6.090;2024-02-28T13:13:12;11.50;90.90
19803;DHT22;66074;50.764;6.090;2024-02-28T13:15:39;11.60;91.40
19803;DHT22;66074;50.764;6.090;2024-02-28T13:18:05;11.70;90.90
19803;DHT22;66074;50.764;6.090;2024-02-28T13:20:34;11.70;90.80
19803;DHT22;66074;50.764;6.090;2024-02-28T13:23:00;11.80;91.70
19803;DHT22;66074;50.764;6.090;2024-02-28T13:25:26;12.00;92.00
19803;DHT22;66074;50.764;6.090;2024-02-28T13:27:52;12.20;90.40
19803;DHT22;66074;50.764;6.090;2024-02-28T13:30:17;12.90;91.60
19803;DHT22;66074;50.764;6.090;2024-02-28T13:32:43;13.30;90.00
19803;DHT22;66074;50.764;6.090;2024-02-28T13:35:09;13.60;89.00
19803;DHT22;66074;50.764;6.090;2024-02-28T13:37:35;13.80;90.40
19803;DHT22;66074;50.764;6.090;2024-02-28T13:40:02;14.00;90.40
19803;DHT22;66074;50.764;6.090;2024-02-28T13:42:30;14.10;88.80
19803;DHT22;66074;50.764;6.090;2024-02-28T13:44:55;14.10;86.60
19803;DHT22;66074;50.764;6.090;2024-02-28T13:47:21;14.20;88.50
19803;DHT22;66074;50.764;6.090;2024-02-28T13:49:46;14.40;90.00
19803;DHT22;66074;50.764;6.090;2024-02-28T13:52:12;14.30;89.10
19803;DHT22;66074;50.764;6.090;2024-02-28T13:54:38;14.20;89.00
19803;DHT22;66074;50.764;6.090;2024-02-28T13:57:04;14.00;90.00
19803;DHT22;66074;50.764;6.090;2024-02-28T13:59:30;13.90;90.90
19803;DHT22;66074;50.764;6.090;2024-02-28T14:01:56;13.80;90.30
19803;DHT22;66074;50.764;6.090;2024-02-28T14:04:22;13.70;88.70
19803;DHT22;66074;50.764;6.090;2024-02-28T14:06:48;13.70;88.90
19803;DHT22;66074;50.764;6.090;2024-02-28T14:09:14;13.80;89.80
19803;DHT22;66074;50.764;6.090;2024-02-28T14:11:40;14.00;88.50
19803;DHT22;66074;50.764;6.090;2024-02-28T14:14:06;14.00;90.30
19803;DHT22;66074;50.764;6.090;2024-02-28T14:16:32;14.10;90.20
19803;DHT22;66074;50.764;6.090;2024-02-28T14:18:58;14.10;89.90
19803;DHT22;66074;50.764;6.090;2024-02-28T14:21:24;14.00;90.10
19803;DHT22;66074;50.764;6.090;2024-02-28T14:23:50;13.80;88.70
19803;DHT22;66074;50.764;6.090;2024-02-28T14:26:16;13.70;89.80
19803;DHT22;66074;50.764;6.090;2024-02-28T14:28:42;13.60;89.70
19803;DHT22;66074;50.764;6.090;2024-02-28T14:31:09;13.50;90.30
19803;DHT22;66074;50.764;6.090;2024-02-28T14:33:35;13.30;88.20
19803;DHT22;66074;50.764;6.090;2024-02-28T14:36:02;13.30;88.20
19803;DHT22;66074;50.764;6.090;2024-02-28T14:38:30;13.30;90.30
19803;DHT22;66074;50.764;6.090;2024-02-28T14:40:56;13.20;86.50
19803;DHT22;66074;50.764;6.090;2024-02-28T14:43:22;13.00;86.70
19803;DHT22;66074;50.764;6.090;2024-02-28T14:45:47;13.00;87.40
19803;DHT22;66074;50.764;6.090;2024-02-28T14:48:13;12.90;84.40
19803;DHT22;66074;50.764;6.090;2024-02-28T14:50:38;12.80;86.80
19803;DHT22;66074;50.764;6.090;2024-02-28T14:53:04;12.70;85.70
19803;DHT22;66074;50.764;6.090;2024-02-28T14:55:30;12.60;88.20
19803;DHT22;66074;50.764;6.090;2024-02-28T14:57:55;12.50;85.60
19803;DHT22;66074;50.764;6.090;2024-02-28T15:00:21;12.50;86.80
19803;DHT22;66074;50.764;6.090;2024-02-28T15:02:47;12.40;87.30
19803;DHT22;66074;50.764;6.090;2024-02-28T15:05:13;12.30;87.30
19803;DHT22;66074;50.764;6.090;2024-02-28T15:07:38;12.30;87.30
19803;DHT22;66074;50.764;6.090;2024-02-28T15:10:05;12.30;87.00
19803;DHT22;66074;50.764;6.090;2024-02-28T15:12:32;12.30;87.70
19803;DHT22;66074;50.764;6.090;2024-02-28T15:15:07;12.30;85.40
19803;DHT22;66074;50.764;6.090;2024-02-28T15:17:33;12.30;84.80
19803;DHT22;66074;50.764;6.090;2024-02-28T15:20:00;12.20;86.30
19803;DHT22;66074;50.764;6.090;2024-02-28T15:22:28;12.10;86.00
19803;DHT22;66074;50.764;6.090;2024-02-28T15:24:55;12.20;87.20
19803;DHT22;66074;50.764;6.090;2024-02-28T15:27:20;12.10;87.30
19803;DHT22;66074;50.764;6.090;2024-02-28T15:29:46;12.10;87.30
19803;DHT22;66074;50.764;6.090;2024-02-28T15:32:12;12.10;85.80
19803;DHT22;66074;50.764;6.090;2024-02-28T15:34:38;12.10;87.60
19803;DHT22;66074;50.764;6.090;2024-02-28T15:37:04;12.10;87.60